Terminal Aerodrome Forecast
Issued by NWS

Home | Current Version | Previous Version | Text Only | Print | Product List | Glossary On
Versions: 1 2 3 4 5 6 7 8 9 10 11 12 13 14
000
FTUS43 KGRB 042325
TAFATW
TAF
KATW 042325Z 0500/0524 31006KT P6SM SCT080
     FM050300 04003KT P6SM SCT080
      TEMPO 0508/0512 3SM BR
     FM051500 10006KT P6SM BKN040=

USA.gov is the U.S. government's official web portal to all federal, state and local government web resources and services.